Darstellungsparameter: Aktuell verwendete Einstellungen:
Skalierung der Graphiken ... ?
xyx+y,   Skalierungsfaktor:      Skalierung: Modus: x, Faktor: 1
Darstellungszeitraum ... ?
Vom - - bis: - -   Zeitraum: 21.12.2020 - 21.12.2020
Min/Max/Avg-Anzeige ... ?
Zeige MMA aktuell
Zeige MMA Monat
Zeige MMA alles
Zeige --A aktuell
Zeige --A Monat
Zeige --A alles
Keine MMA-Anzeige
MMA:
Average (ber die Originaldaten)
MMA-Basis: 21.12.2020 - 21.12.2020
Quicknavigation für Darstellung... ?
Tage:      1T, 2T, 3T, 5T -1T -2T -3T -5T +1T +2T +3T +5T
Wochen: 1W, 2W, 3W -1W -2W -3W +1W +2W +3W
Monate: 1M, 3M, 6M -1M -3M -6M +1M +3M +6M
Jahre:    1J, 3J, 5J, 10J -1J -3J -5J -10J +1J +3J +5J +10J
Nutze für die Darstellung ... ?
Originaldaten oder Mittelwerte auf ...
Stundenbasis Tagesbasis Wochenbasis
Monatsbasis Jahresbasis      Datenbasis: Original-Daten
Darstellen als:
Statistik (Auto) Statistik J:M      Darstellung:
Zur Graphik,    zurück zur Übersicht aller Sensoren.
 
Tabellarische Datenbersicht: ?
 
Sensor: Nr:Datum:Temp:Abs-Feuchte:Windchill:Wind:
Aussen-T/F 1 21-12-2020 00:00:00 7.2 C 7.46 g/m*3 7.2 C 1.6 km/h
2 21-12-2020 00:05:00 7.1 C 7.41 g/m*3 7.1 C 3.2 km/h
3 21-12-2020 00:10:00 7.1 C 7.41 g/m*3 7.1 C 1.6 km/h
4 21-12-2020 00:15:00 7 C 7.36 g/m*3 7 C 4.8 km/h
5 21-12-2020 00:20:00 7.1 C 7.41 g/m*3 7.1 C 1.6 km/h
6 21-12-2020 00:25:00 7.1 C 7.41 g/m*3 7.1 C 4.8 km/h
7 21-12-2020 00:30:00 7.1 C 7.41 g/m*3 6.02 C 6.4 km/h
8 21-12-2020 00:35:00 7.1 C 7.41 g/m*3 7.1 C 3.2 km/h
9 21-12-2020 00:40:00 7.1 C 7.41 g/m*3 7.1 C 4.8 km/h
10 21-12-2020 00:45:00 7 C 7.28 g/m*3 7 C 4.8 km/h
11 21-12-2020 00:50:00 6.9 C 7.31 g/m*3 6.9 C 3.2 km/h
12 21-12-2020 00:55:00 6.8 C 7.27 g/m*3 6.8 C 0 km/h
13 21-12-2020 01:00:00 6.8 C 7.19 g/m*3 6.8 C 0 km/h
14 21-12-2020 01:05:00 6.7 C 7.14 g/m*3 6.7 C 0 km/h
15 21-12-2020 01:10:00 6.5 C 7.05 g/m*3 6.5 C 0 km/h
16 21-12-2020 01:15:00 6.3 C 6.96 g/m*3 6.3 C 0 km/h
17 21-12-2020 01:20:00 6.1 C 6.79 g/m*3 6.1 C 0 km/h
18 21-12-2020 01:25:00 5.8 C 6.66 g/m*3 5.8 C 0 km/h
19 21-12-2020 01:30:00 5.6 C 6.57 g/m*3 5.6 C 0 km/h
20 21-12-2020 01:35:00 5.3 C 6.52 g/m*3 5.3 C 0 km/h
21 21-12-2020 01:40:00 5.2 C 6.47 g/m*3 5.2 C 0 km/h
22 21-12-2020 01:45:00 5.2 C 6.47 g/m*3 5.2 C 0 km/h
23 21-12-2020 01:50:00 5.2 C 6.54 g/m*3 5.2 C 0 km/h
24 21-12-2020 01:55:00 5.2 C 6.54 g/m*3 5.2 C 0 km/h
25 21-12-2020 02:00:00 5.1 C 6.5 g/m*3 5.1 C 0 km/h
Sensor: Nr:Datum:Temp:Abs-Feuchte:Windchill:Wind:
Aussen-T/F 26 21-12-2020 02:05:00 5 C 6.46 g/m*3 5 C 0 km/h
27 21-12-2020 02:10:00 4.9 C 6.41 g/m*3 4.9 C 0 km/h
28 21-12-2020 02:15:00 5.1 C 6.5 g/m*3 5.1 C 0 km/h
29 21-12-2020 02:20:00 5.1 C 6.5 g/m*3 5.1 C 0 km/h
30 21-12-2020 02:25:00 5.2 C 6.61 g/m*3 5.2 C 0 km/h
31 21-12-2020 02:30:00 5.2 C 6.61 g/m*3 5.2 C 0 km/h
32 21-12-2020 02:35:00 5.2 C 6.61 g/m*3 5.2 C 0 km/h
33 21-12-2020 02:40:00 5.1 C 6.5 g/m*3 5.1 C 0 km/h
34 21-12-2020 02:45:00 4.9 C 6.41 g/m*3 4.9 C 0 km/h
35 21-12-2020 02:50:00 4.7 C 6.33 g/m*3 4.7 C 0 km/h
36 21-12-2020 02:55:00 4.4 C 6.2 g/m*3 4.4 C 0 km/h
37 21-12-2020 03:00:00 4.3 C 6.16 g/m*3 4.3 C 0 km/h
38 21-12-2020 03:05:00 4.2 C 6.12 g/m*3 4.2 C 0 km/h
39 21-12-2020 03:10:00 4.2 C 6.12 g/m*3 4.2 C 0 km/h
40 21-12-2020 03:15:00 4.2 C 6.12 g/m*3 4.2 C 0 km/h
41 21-12-2020 03:20:00 4.1 C 6.08 g/m*3 4.1 C 0 km/h
42 21-12-2020 03:25:00 4.2 C 6.19 g/m*3 4.2 C 0 km/h
43 21-12-2020 03:30:00 4.2 C 6.19 g/m*3 4.2 C 0 km/h
44 21-12-2020 03:35:00 4.3 C 6.23 g/m*3 4.3 C 0 km/h
45 21-12-2020 03:40:00 4.3 C 6.23 g/m*3 4.3 C 0 km/h
46 21-12-2020 03:45:00 4.4 C 6.27 g/m*3 4.4 C 0 km/h
47 21-12-2020 03:50:00 4.5 C 6.31 g/m*3 4.5 C 0 km/h
48 21-12-2020 03:55:00 4.6 C 6.35 g/m*3 4.6 C 0 km/h
49 21-12-2020 04:00:00 4.6 C 6.35 g/m*3 4.6 C 0 km/h
50 21-12-2020 04:05:00 4.6 C 6.35 g/m*3 4.6 C 0 km/h
Sensor: Nr:Datum:Temp:Abs-Feuchte:Windchill:Wind:
Aussen-T/F 51 21-12-2020 04:10:00 4.4 C 6.27 g/m*3 4.4 C 0 km/h
52 21-12-2020 04:15:00 4.4 C 6.27 g/m*3 4.4 C 0 km/h
53 21-12-2020 04:20:00 4.5 C 6.31 g/m*3 4.5 C 0 km/h
54 21-12-2020 04:25:00 4.6 C 6.35 g/m*3 4.6 C 0 km/h
55 21-12-2020 04:30:00 4.8 C 6.5 g/m*3 4.8 C 0 km/h
56 21-12-2020 04:35:00 4.9 C 6.55 g/m*3 4.9 C 0 km/h
57 21-12-2020 04:40:00 4.9 C 6.55 g/m*3 4.9 C 0 km/h
58 21-12-2020 04:45:00 4.9 C 6.55 g/m*3 4.9 C 0 km/h
59 21-12-2020 04:50:00 4.9 C 6.55 g/m*3 4.9 C 0 km/h
60 21-12-2020 04:55:00 4.9 C 6.55 g/m*3 4.9 C 0 km/h
61 21-12-2020 05:00:00 4.9 C 6.48 g/m*3 4.9 C 0 km/h
62 21-12-2020 05:05:00 4.9 C 6.48 g/m*3 4.9 C 0 km/h
63 21-12-2020 05:10:00 4.9 C 6.55 g/m*3 4.9 C 0 km/h
64 21-12-2020 05:15:00 4.9 C 6.55 g/m*3 4.9 C 0 km/h
65 21-12-2020 05:20:00 4.9 C 6.48 g/m*3 4.9 C 0 km/h
66 21-12-2020 05:25:00 4.8 C 6.5 g/m*3 4.8 C 0 km/h
67 21-12-2020 05:30:00 4.8 C 6.5 g/m*3 4.8 C 0 km/h
68 21-12-2020 05:35:00 4.7 C 6.39 g/m*3 4.7 C 0 km/h
69 21-12-2020 05:40:00 4.6 C 6.35 g/m*3 4.6 C 0 km/h
70 21-12-2020 05:45:00 4.6 C 6.35 g/m*3 4.6 C 0 km/h
71 21-12-2020 05:50:00 4.4 C 6.27 g/m*3 4.4 C 0 km/h
72 21-12-2020 05:55:00 4.3 C 6.23 g/m*3 4.3 C 0 km/h
73 21-12-2020 06:00:00 4.3 C 6.23 g/m*3 4.3 C 0 km/h
74 21-12-2020 06:05:00 4.2 C 6.19 g/m*3 4.2 C 0 km/h
75 21-12-2020 06:10:00 4.2 C 6.19 g/m*3 4.2 C 0 km/h
Sensor: Nr:Datum:Temp:Abs-Feuchte:Windchill:Wind:
Aussen-T/F 76 21-12-2020 06:15:00 4.1 C 6.14 g/m*3 4.1 C 0 km/h
77 21-12-2020 06:20:00 4.1 C 6.14 g/m*3 4.1 C 0 km/h
78 21-12-2020 06:25:00 4.1 C 6.21 g/m*3 4.1 C 0 km/h
79 21-12-2020 06:30:00 4.1 C 6.21 g/m*3 4.1 C 0 km/h
80 21-12-2020 06:35:00 4.1 C 6.21 g/m*3 4.1 C 0 km/h
81 21-12-2020 06:40:00 4.1 C 6.21 g/m*3 4.1 C 0 km/h
82 21-12-2020 06:45:00 4.2 C 6.25 g/m*3 4.2 C 4.8 km/h
83 21-12-2020 06:50:00 4.6 C 6.42 g/m*3 3.13 C 6.4 km/h
84 21-12-2020 06:55:00 4.9 C 6.55 g/m*3 4.9 C 3.2 km/h
85 21-12-2020 07:00:00 5.2 C 6.68 g/m*3 5.2 C 3.2 km/h
86 21-12-2020 07:05:00 5.6 C 6.86 g/m*3 5.6 C 4.8 km/h
87 21-12-2020 07:10:00 5.7 C 6.97 g/m*3 5.7 C 4.8 km/h
88 21-12-2020 07:15:00 5.9 C 6.99 g/m*3 5.9 C 1.6 km/h
89 21-12-2020 07:20:00 6 C 7.11 g/m*3 6 C 3.2 km/h
90 21-12-2020 07:25:00 6.1 C 7.16 g/m*3 6.1 C 0 km/h
91 21-12-2020 07:30:00 6 C 7.04 g/m*3 6 C 3.2 km/h
92 21-12-2020 07:35:00 5.9 C 6.99 g/m*3 5.9 C 3.2 km/h
93 21-12-2020 07:40:00 5.9 C 6.99 g/m*3 5.9 C 0 km/h
94 21-12-2020 07:45:00 5.8 C 6.95 g/m*3 5.8 C 3.2 km/h
95 21-12-2020 07:50:00 5.8 C 6.95 g/m*3 5.8 C 0 km/h
96 21-12-2020 07:55:00 5.7 C 6.9 g/m*3 5.7 C 0 km/h
97 21-12-2020 08:00:00 5.7 C 6.9 g/m*3 5.7 C 0 km/h
98 21-12-2020 08:05:00 5.6 C 6.86 g/m*3 5.6 C 0 km/h
99 21-12-2020 08:10:00 5.4 C 6.77 g/m*3 5.4 C 0 km/h
100 21-12-2020 08:15:00 5.4 C 6.77 g/m*3 5.4 C 0 km/h
Sensor: Nr:Datum:Temp:Abs-Feuchte:Windchill:Wind:
Aussen-T/F 101 21-12-2020 08:20:00 5.3 C 6.65 g/m*3 5.3 C 0 km/h
102 21-12-2020 08:25:00 5.2 C 6.61 g/m*3 5.2 C 0 km/h
103 21-12-2020 08:30:00 5.1 C 6.63 g/m*3 5.1 C 0 km/h
104 21-12-2020 08:35:00 5.1 C 6.63 g/m*3 5.1 C 0 km/h
105 21-12-2020 08:40:00 5.1 C 6.63 g/m*3 5.1 C 0 km/h
106 21-12-2020 08:45:00 5.1 C 6.63 g/m*3 5.1 C 0 km/h
107 21-12-2020 08:50:00 5.1 C 6.63 g/m*3 5.1 C 0 km/h
108 21-12-2020 08:55:00 5.1 C 6.63 g/m*3 5.1 C 0 km/h
109 21-12-2020 09:00:00 5.1 C 6.63 g/m*3 5.1 C 0 km/h
110 21-12-2020 09:05:00 5.1 C 6.63 g/m*3 5.1 C 0 km/h
111 21-12-2020 09:10:00 5.1 C 6.63 g/m*3 5.1 C 0 km/h
112 21-12-2020 09:15:00 5.1 C 6.63 g/m*3 5.1 C 0 km/h
113 21-12-2020 09:20:00 5.2 C 6.68 g/m*3 5.2 C 0 km/h
114 21-12-2020 09:25:00 5.2 C 6.68 g/m*3 5.2 C 0 km/h
115 21-12-2020 09:30:00 5.2 C 6.68 g/m*3 5.2 C 0 km/h
116 21-12-2020 09:35:00 5.3 C 6.72 g/m*3 5.3 C 0 km/h
117 21-12-2020 09:40:00 5.4 C 6.77 g/m*3 5.4 C 0 km/h
118 21-12-2020 09:45:00 5.4 C 6.77 g/m*3 5.4 C 3.2 km/h
119 21-12-2020 09:50:00 5.5 C 6.81 g/m*3 5.5 C 0 km/h
120 21-12-2020 09:55:00 5.6 C 6.86 g/m*3 5.6 C 0 km/h
121 21-12-2020 10:00:00 5.7 C 6.9 g/m*3 5.7 C 0 km/h
122 21-12-2020 10:05:00 5.7 C 6.9 g/m*3 5.7 C 1.6 km/h
123 21-12-2020 10:10:00 5.8 C 6.95 g/m*3 5.8 C 0 km/h
124 21-12-2020 10:15:00 5.9 C 6.99 g/m*3 5.9 C 0 km/h
125 21-12-2020 10:20:00 5.9 C 6.99 g/m*3 5.9 C 0 km/h
Sensor: Nr:Datum:Temp:Abs-Feuchte:Windchill:Wind:
Aussen-T/F 126 21-12-2020 10:25:00 6.1 C 7.09 g/m*3 6.1 C 0 km/h
127 21-12-2020 10:30:00 6.2 C 7.13 g/m*3 6.2 C 0 km/h
128 21-12-2020 10:35:00 6.3 C 7.18 g/m*3 6.3 C 0 km/h
129 21-12-2020 10:40:00 6.3 C 7.18 g/m*3 6.3 C 0 km/h
130 21-12-2020 10:45:00 6.4 C 7.23 g/m*3 6.4 C 1.6 km/h
131 21-12-2020 10:50:00 6.6 C 7.32 g/m*3 6.6 C 3.2 km/h
132 21-12-2020 10:55:00 6.7 C 7.37 g/m*3 6.7 C 1.6 km/h
133 21-12-2020 11:00:00 6.8 C 7.42 g/m*3 6.8 C 4.8 km/h
134 21-12-2020 11:05:00 6.9 C 7.47 g/m*3 6.9 C 0 km/h
135 21-12-2020 11:10:00 7 C 7.52 g/m*3 7 C 0 km/h
136 21-12-2020 11:15:00 7.1 C 7.57 g/m*3 7.1 C 3.2 km/h
137 21-12-2020 11:20:00 7.2 C 7.61 g/m*3 7.2 C 1.6 km/h
138 21-12-2020 11:25:00 7.4 C 7.71 g/m*3 7.4 C 4.8 km/h
139 21-12-2020 11:30:00 7.4 C 7.71 g/m*3 7.4 C 3.2 km/h
140 21-12-2020 11:35:00 7.6 C 7.81 g/m*3 7.6 C 0 km/h
141 21-12-2020 11:40:00 7.7 C 7.87 g/m*3 7.7 C 1.6 km/h
142 21-12-2020 11:45:00 7.8 C 7.92 g/m*3 7.8 C 0 km/h
143 21-12-2020 11:50:00 7.9 C 7.97 g/m*3 7.9 C 1.6 km/h
144 21-12-2020 11:55:00 7.9 C 7.97 g/m*3 7.9 C 1.6 km/h
145 21-12-2020 12:00:00 8.1 C 8.07 g/m*3 8.1 C 1.6 km/h
146 21-12-2020 12:05:00 8.1 C 8.07 g/m*3 8.1 C 3.2 km/h
147 21-12-2020 12:10:00 8.2 C 8.04 g/m*3 8.2 C 4.8 km/h
148 21-12-2020 12:15:00 8.3 C 8.09 g/m*3 8.3 C 3.2 km/h
149 21-12-2020 12:20:00 8.4 C 8.14 g/m*3 8.4 C 0 km/h
150 21-12-2020 12:25:00 8.5 C 8.2 g/m*3 8.5 C 3.2 km/h
Sensor: Nr:Datum:Temp:Abs-Feuchte:Windchill:Wind:
Aussen-T/F 151 21-12-2020 12:30:00 8.6 C 8.16 g/m*3 8.6 C 1.6 km/h
152 21-12-2020 12:35:00 8.7 C 8.22 g/m*3 8.7 C 3.2 km/h
153 21-12-2020 12:40:00 8.8 C 8.18 g/m*3 7.98 C 6.4 km/h
154 21-12-2020 12:45:00 8.9 C 8.15 g/m*3 8.9 C 4.8 km/h
155 21-12-2020 12:50:00 9.1 C 8.25 g/m*3 9.1 C 4.8 km/h
156 21-12-2020 12:55:00 9.2 C 8.3 g/m*3 9.2 C 3.2 km/h
157 21-12-2020 13:00:00 9.3 C 8.27 g/m*3 9.3 C 1.6 km/h
158 21-12-2020 13:05:00 9.3 C 8.27 g/m*3 9.3 C 3.2 km/h
159 21-12-2020 13:10:00 9.4 C 8.23 g/m*3 8.68 C 6.4 km/h
160 21-12-2020 13:15:00 9.5 C 8.19 g/m*3 9.5 C 3.2 km/h
161 21-12-2020 13:20:00 9.6 C 8.24 g/m*3 9.6 C 3.2 km/h
162 21-12-2020 13:25:00 9.7 C 8.2 g/m*3 9.02 C 6.4 km/h
163 21-12-2020 13:30:00 9.8 C 8.16 g/m*3 9.8 C 3.2 km/h
164 21-12-2020 13:35:00 9.9 C 8.22 g/m*3 9.9 C 3.2 km/h
165 21-12-2020 13:40:00 9.9 C 8.12 g/m*3 8.3 C 11.3 km/h
166 21-12-2020 13:45:00 10 C 8.08 g/m*3 10 C 3.2 km/h
167 21-12-2020 13:50:00 10.1 C 8.04 g/m*3 9.48 C 6.4 km/h
168 21-12-2020 13:55:00 10.1 C 7.94 g/m*3 9.1 C 8.1 km/h
169 21-12-2020 14:00:00 10.1 C 8.04 g/m*3 10.1 C 0 km/h
170 21-12-2020 14:05:00 10.1 C 8.13 g/m*3 10.1 C 0 km/h
171 21-12-2020 14:10:00 10.1 C 8.13 g/m*3 10.1 C 3.2 km/h
172 21-12-2020 14:15:00 9.9 C 7.94 g/m*3 9.9 C 3.2 km/h
173 21-12-2020 14:20:00 9.8 C 7.89 g/m*3 9.8 C 3.2 km/h
174 21-12-2020 14:25:00 9.8 C 7.89 g/m*3 9.8 C 0 km/h
175 21-12-2020 14:30:00 9.8 C 7.98 g/m*3 9.8 C 0 km/h
Sensor: Nr:Datum:Temp:Abs-Feuchte:Windchill:Wind:
Aussen-T/F 176 21-12-2020 14:35:00 9.8 C 8.07 g/m*3 9.8 C 0 km/h
177 21-12-2020 14:40:00 9.7 C 8.11 g/m*3 9.7 C 0 km/h
178 21-12-2020 14:45:00 9.6 C 8.15 g/m*3 9.6 C 0 km/h
179 21-12-2020 14:50:00 9.5 C 8.1 g/m*3 9.5 C 0 km/h
180 21-12-2020 14:55:00 9.4 C 8.14 g/m*3 9.4 C 1.6 km/h
181 21-12-2020 15:00:00 9.3 C 8.09 g/m*3 9.3 C 0 km/h
182 21-12-2020 15:05:00 9.2 C 8.13 g/m*3 9.2 C 0 km/h
183 21-12-2020 15:10:00 9.1 C 8.07 g/m*3 9.1 C 1.6 km/h
184 21-12-2020 15:15:00 9 C 8.02 g/m*3 9 C 0 km/h
185 21-12-2020 15:20:00 8.9 C 8.06 g/m*3 8.9 C 1.6 km/h
186 21-12-2020 15:25:00 8.9 C 8.06 g/m*3 8.9 C 0 km/h
187 21-12-2020 15:30:00 8.9 C 8.06 g/m*3 8.9 C 0 km/h
188 21-12-2020 15:35:00 8.8 C 8.09 g/m*3 8.8 C 0 km/h
189 21-12-2020 15:40:00 8.8 C 8.09 g/m*3 8.8 C 0 km/h
190 21-12-2020 15:45:00 8.7 C 7.96 g/m*3 8.7 C 0 km/h
191 21-12-2020 15:50:00 8.7 C 8.04 g/m*3 8.7 C 0 km/h
192 21-12-2020 15:55:00 8.6 C 7.99 g/m*3 8.6 C 1.6 km/h
193 21-12-2020 16:00:00 8.5 C 7.94 g/m*3 8.5 C 0 km/h
194 21-12-2020 16:05:00 8.4 C 7.89 g/m*3 8.4 C 0 km/h
195 21-12-2020 16:10:00 8.4 C 7.89 g/m*3 8.4 C 1.6 km/h
196 21-12-2020 16:15:00 8.3 C 7.92 g/m*3 8.3 C 0 km/h
197 21-12-2020 16:20:00 8.3 C 7.92 g/m*3 8.3 C 0 km/h
198 21-12-2020 16:25:00 8.2 C 7.87 g/m*3 8.2 C 0 km/h
199 21-12-2020 16:30:00 8.2 C 7.87 g/m*3 8.2 C 0 km/h
200 21-12-2020 16:35:00 8.2 C 7.87 g/m*3 8.2 C 0 km/h
Sensor: Nr:Datum:Temp:Abs-Feuchte:Windchill:Wind:
Aussen-T/F 201 21-12-2020 16:40:00 8.1 C 7.82 g/m*3 8.1 C 0 km/h
202 21-12-2020 16:45:00 8.1 C 7.82 g/m*3 8.1 C 0 km/h
203 21-12-2020 16:50:00 8.1 C 7.82 g/m*3 8.1 C 0 km/h
204 21-12-2020 16:55:00 8 C 7.85 g/m*3 8 C 0 km/h
205 21-12-2020 17:00:00 7.9 C 7.8 g/m*3 7.9 C 0 km/h
206 21-12-2020 17:05:00 7.9 C 7.8 g/m*3 7.9 C 0 km/h
207 21-12-2020 17:10:00 7.9 C 7.8 g/m*3 7.9 C 0 km/h
208 21-12-2020 17:15:00 7.9 C 7.8 g/m*3 7.9 C 0 km/h
209 21-12-2020 17:20:00 7.9 C 7.8 g/m*3 7.9 C 0 km/h
210 21-12-2020 17:25:00 7.9 C 7.8 g/m*3 7.9 C 0 km/h
211 21-12-2020 17:30:00 7.9 C 7.8 g/m*3 7.9 C 0 km/h
212 21-12-2020 17:35:00 7.8 C 7.75 g/m*3 7.8 C 0 km/h
213 21-12-2020 17:40:00 7.8 C 7.75 g/m*3 7.8 C 0 km/h
214 21-12-2020 17:45:00 7.8 C 7.83 g/m*3 7.8 C 0 km/h
215 21-12-2020 17:50:00 7.8 C 7.83 g/m*3 7.8 C 3.2 km/h
216 21-12-2020 17:55:00 7.9 C 7.89 g/m*3 7.9 C 4.8 km/h
217 21-12-2020 18:00:00 7.9 C 7.89 g/m*3 7.9 C 1.6 km/h
218 21-12-2020 18:05:00 7.9 C 7.89 g/m*3 7.9 C 1.6 km/h
219 21-12-2020 18:10:00 7.9 C 7.89 g/m*3 7.9 C 0 km/h
220 21-12-2020 18:15:00 7.9 C 7.89 g/m*3 7.9 C 1.6 km/h
221 21-12-2020 18:20:00 7.9 C 7.89 g/m*3 7.9 C 0 km/h
222 21-12-2020 18:25:00 7.9 C 7.89 g/m*3 7.9 C 3.2 km/h
223 21-12-2020 18:30:00 8 C 7.94 g/m*3 8 C 3.2 km/h
224 21-12-2020 18:35:00 8.1 C 7.99 g/m*3 8.1 C 0 km/h
225 21-12-2020 18:40:00 8.1 C 7.99 g/m*3 8.1 C 1.6 km/h
Sensor: Nr:Datum:Temp:Abs-Feuchte:Windchill:Wind:
Aussen-T/F 226 21-12-2020 18:45:00 8.1 C 7.99 g/m*3 8.1 C 4.8 km/h
227 21-12-2020 18:50:00 8.1 C 7.99 g/m*3 8.1 C 3.2 km/h
228 21-12-2020 18:55:00 8.1 C 7.99 g/m*3 8.1 C 4.8 km/h
229 21-12-2020 19:00:00 8.1 C 7.99 g/m*3 8.1 C 0 km/h
230 21-12-2020 19:05:00 8.1 C 7.99 g/m*3 8.1 C 0 km/h
231 21-12-2020 19:10:00 8.2 C 8.04 g/m*3 8.2 C 4.8 km/h
232 21-12-2020 19:15:00 8.2 C 8.04 g/m*3 8.2 C 1.6 km/h
233 21-12-2020 19:20:00 8.2 C 8.04 g/m*3 8.2 C 3.2 km/h
234 21-12-2020 19:25:00 8.2 C 8.04 g/m*3 8.2 C 0 km/h
235 21-12-2020 19:30:00 8.2 C 8.04 g/m*3 8.2 C 0 km/h
236 21-12-2020 19:35:00 8.2 C 8.04 g/m*3 8.2 C 1.6 km/h
237 21-12-2020 19:40:00 8.2 C 8.04 g/m*3 8.2 C 3.2 km/h
238 21-12-2020 19:45:00 8.2 C 8.12 g/m*3 8.2 C 0 km/h
239 21-12-2020 19:50:00 8.2 C 8.12 g/m*3 8.2 C 0 km/h
240 21-12-2020 19:55:00 8.2 C 8.12 g/m*3 8.2 C 0 km/h
241 21-12-2020 20:00:00 8.2 C 8.12 g/m*3 8.2 C 1.6 km/h
242 21-12-2020 20:05:00 8.2 C 8.12 g/m*3 8.2 C 1.6 km/h
243 21-12-2020 20:10:00 8.3 C 8.18 g/m*3 8.3 C 1.6 km/h
244 21-12-2020 20:15:00 8.3 C 8.18 g/m*3 8.3 C 3.2 km/h
245 21-12-2020 20:20:00 8.3 C 8.18 g/m*3 8.3 C 1.6 km/h
246 21-12-2020 20:25:00 8.4 C 8.23 g/m*3 8.4 C 0 km/h
247 21-12-2020 20:30:00 8.4 C 8.23 g/m*3 8.4 C 0 km/h
248 21-12-2020 20:35:00 8.4 C 8.23 g/m*3 8.4 C 0 km/h
249 21-12-2020 20:40:00 8.4 C 8.23 g/m*3 8.4 C 1.6 km/h
250 21-12-2020 20:45:00 8.4 C 8.23 g/m*3 8.4 C 0 km/h
Sensor: Nr:Datum:Temp:Abs-Feuchte:Windchill:Wind:
Aussen-T/F 251 21-12-2020 20:50:00 8.5 C 8.28 g/m*3 8.5 C 4.8 km/h
252 21-12-2020 20:55:00 8.5 C 8.28 g/m*3 8.5 C 1.6 km/h
253 21-12-2020 21:00:00 8.5 C 8.28 g/m*3 8.5 C 1.6 km/h
254 21-12-2020 21:05:00 8.5 C 8.28 g/m*3 8.5 C 1.6 km/h
255 21-12-2020 21:10:00 8.6 C 8.34 g/m*3 8.6 C 3.2 km/h
256 21-12-2020 21:15:00 8.6 C 8.34 g/m*3 8.6 C 4.8 km/h
257 21-12-2020 21:20:00 8.7 C 8.39 g/m*3 7.87 C 6.4 km/h
258 21-12-2020 21:25:00 8.7 C 8.39 g/m*3 8.7 C 3.2 km/h
259 21-12-2020 21:30:00 8.8 C 8.44 g/m*3 6.97 C 11.3 km/h
260 21-12-2020 21:35:00 8.9 C 8.5 g/m*3 8.1 C 6.4 km/h
261 21-12-2020 21:40:00 8.9 C 8.5 g/m*3 7.69 C 8.1 km/h
262 21-12-2020 21:45:00 8.9 C 8.5 g/m*3 8.9 C 0 km/h
263 21-12-2020 21:50:00 8.9 C 8.5 g/m*3 7.69 C 8.1 km/h
264 21-12-2020 21:55:00 9 C 8.55 g/m*3 6.75 C 14.5 km/h
265 21-12-2020 22:00:00 9.1 C 8.61 g/m*3 6.87 C 14.5 km/h
266 21-12-2020 22:05:00 9.1 C 8.61 g/m*3 9.1 C 3.2 km/h
267 21-12-2020 22:10:00 9.2 C 8.66 g/m*3 8.05 C 8.1 km/h
268 21-12-2020 22:15:00 9.2 C 8.66 g/m*3 9.2 C 1.6 km/h
269 21-12-2020 22:20:00 9.2 C 8.66 g/m*3 8.05 C 8.1 km/h
270 21-12-2020 22:25:00 9.2 C 8.66 g/m*3 9.2 C 4.8 km/h
271 21-12-2020 22:30:00 9.3 C 8.72 g/m*3 7.12 C 14.5 km/h
272 21-12-2020 22:35:00 9.3 C 8.72 g/m*3 7.85 C 9.7 km/h
273 21-12-2020 22:40:00 9.3 C 8.72 g/m*3 8.16 C 8.1 km/h
274 21-12-2020 22:45:00 9.4 C 8.77 g/m*3 7.97 C 9.7 km/h
275 21-12-2020 22:50:00 9.4 C 8.77 g/m*3 6.86 C 17.7 km/h
Sensor: Nr:Datum:Temp:Abs-Feuchte:Windchill:Wind:
Aussen-T/F 276 21-12-2020 22:55:00 9.5 C 8.74 g/m*3 8.79 C 6.4 km/h
277 21-12-2020 23:00:00 9.6 C 8.79 g/m*3 9.6 C 4.8 km/h
278 21-12-2020 23:05:00 9.6 C 8.79 g/m*3 9.6 C 1.6 km/h
279 21-12-2020 23:10:00 9.6 C 8.79 g/m*3 9.6 C 1.6 km/h
280 21-12-2020 23:15:00 9.6 C 8.79 g/m*3 9.6 C 4.8 km/h
281 21-12-2020 23:20:00 9.6 C 8.79 g/m*3 9.6 C 1.6 km/h
282 21-12-2020 23:25:00 9.6 C 8.79 g/m*3 9.6 C 3.2 km/h
283 21-12-2020 23:30:00 9.7 C 8.85 g/m*3 9.02 C 6.4 km/h
284 21-12-2020 23:35:00 9.7 C 8.85 g/m*3 8.63 C 8.1 km/h
285 21-12-2020 23:40:00 9.8 C 8.91 g/m*3 9.14 C 6.4 km/h
286 21-12-2020 23:45:00 9.8 C 8.91 g/m*3 9.8 C 4.8 km/h
287 21-12-2020 23:50:00 9.8 C 8.91 g/m*3 9.8 C 4.8 km/h
288 21-12-2020 23:55:00 9.9 C 8.96 g/m*3 9.9 C 1.6 km/h

Legende:
   Min
   Max


Maximal/Minimal-Werte vom 21.12.2020 - 21.12.2020

Sensor Min Max Avg
Temp
(Aussen-T/F)
4.1 °C
21-12-2020  03:20:00
10.1 °C
21-12-2020  13:50:00
7.13 °C
Abs-Feuchte
(Aussen-T/F)
6.08 g/m*3
21-12-2020  03:20:00
8.96 g/m*3
21-12-2020  23:55:00
7.45 g/m*3
Windchill
(Aussen-T/F)
3.13 C
21-12-2020  06:50:00
10.1 C
21-12-2020  14:00:00
6.99 C

Die Daten stammen von einer Davis Vantage Pro 2 Wetter-Station und werden unter Linux mit der Software wview2wettercgi und aufbereitet. Alle Angaben erfolgen ohne Gewähr für ihre Vollständigkeit oder Richtigkeit.
Kontakt: Rainer Krienke krienke@uni-koblenz.de . Meine Webseiten an der Uni Koblenz oder privat.
Version: $Revision: 0.78 $